createdAt,value
2022-10-08T08:23:15.995Z,11.82
2022-10-08T08:25:44.939Z,10.57
2022-10-08T08:28:11.759Z,9.50
2022-10-08T08:30:38.601Z,10.02
2022-10-08T08:33:05.815Z,9.70
2022-10-08T08:35:32.636Z,8.55
2022-10-08T08:37:59.491Z,9.27
2022-10-08T08:40:28.462Z,8.10
2022-10-08T08:42:56.714Z,7.63
2022-10-08T08:45:46.739Z,7.78
2022-10-08T08:48:22.736Z,7.35
2022-10-08T08:50:53.568Z,6.80
2022-10-08T08:53:20.700Z,7.75
2022-10-08T08:55:50.134Z,6.53
2022-10-08T08:58:26.070Z,6.78
2022-10-08T09:01:02.987Z,7.05
2022-10-08T09:03:34.913Z,7.50
2022-10-08T09:06:09.883Z,6.85
2022-10-08T09:09:01.013Z,6.53
2022-10-08T09:11:30.069Z,6.40
2022-10-08T09:14:15.913Z,7.38
2022-10-08T09:16:43.517Z,6.93
2022-10-08T09:19:10.456Z,6.95
2022-10-08T09:21:37.355Z,6.80
2022-10-08T09:24:04.616Z,7.85
2022-10-08T09:26:33.864Z,7.65
2022-10-08T09:29:03.527Z,8.25
2022-10-08T09:31:42.507Z,7.80
2022-10-08T09:34:18.188Z,7.03
2022-10-08T09:36:51.667Z,7.78
2022-10-08T09:39:23.044Z,7.43
2022-10-08T09:42:08.505Z,7.78
2022-10-08T09:44:44.466Z,7.13
2022-10-08T09:47:17.332Z,7.28
2022-10-08T09:49:50.005Z,6.97
2022-10-08T09:52:26.903Z,5.60
2022-10-08T09:55:00.638Z,6.55
2022-10-08T09:57:29.486Z,6.07
2022-10-08T10:00:01.606Z,6.78
2022-10-08T10:02:38.641Z,6.22
2022-10-08T10:05:07.992Z,5.90
2022-10-08T14:01:29.389Z,3.65
2022-10-08T14:03:56.485Z,4.97
2022-10-08T14:06:23.417Z,3.50
2022-10-08T14:08:50.553Z,5.00
2022-10-08T14:11:17.933Z,4.70
2022-10-08T14:13:44.784Z,3.67
2022-10-08T14:16:13.286Z,5.72
2022-10-08T14:18:40.540Z,4.45
2022-10-08T14:21:07.516Z,3.70
2022-10-08T14:23:34.360Z,5.07
2022-10-08T14:26:01.449Z,3.90
2022-10-08T14:28:28.305Z,3.78
2022-10-08T14:30:55.237Z,3.58
2022-10-08T14:33:22.247Z,3.78
2022-10-08T14:35:53.641Z,3.45
2022-10-08T14:38:20.595Z,3.42
2022-10-08T14:40:47.628Z,3.83
2022-10-08T14:43:14.428Z,3.45
2022-10-08T14:45:41.415Z,3.28
2022-10-08T14:48:10.869Z,3.75
2022-10-08T14:50:37.715Z,3.70
2022-10-08T14:53:04.537Z,3.92
2022-10-08T14:55:31.504Z,4.15
2022-10-08T14:57:58.340Z,5.20
2022-10-08T15:00:25.198Z,3.33
2022-10-08T15:02:52.235Z,2.90
2022-10-08T15:05:19.140Z,2.92
2022-10-08T15:07:46.278Z,3.30
2022-10-08T15:10:13.651Z,4.40
2022-10-08T15:12:40.460Z,5.53
2022-10-08T15:15:07.655Z,10.40
2022-10-08T15:17:34.653Z,4.97
2022-10-08T15:20:01.479Z,4.07
2022-10-08T15:22:28.337Z,12.13
2022-10-08T15:24:55.343Z,30.55
2022-10-08T15:27:22.270Z,11.07
2022-10-08T15:29:49.044Z,7.32
2022-10-08T15:32:16.062Z,5.18
2022-10-08T15:34:42.921Z,5.75
2022-10-08T15:37:09.747Z,6.07
2022-10-08T15:39:36.750Z,4.45
2022-10-08T15:42:03.967Z,4.60
2022-10-08T15:44:31.307Z,9.98
2022-10-08T15:47:02.057Z,8.48
2022-10-08T15:49:33.075Z,7.47
2022-10-08T15:52:01.000Z,5.05
2022-10-08T15:54:27.869Z,5.68
2022-10-08T15:56:54.833Z,5.10
2022-10-08T15:59:21.813Z,5.50
2022-10-08T16:01:49.042Z,3.58
2022-10-08T16:04:15.830Z,4.03
2022-10-08T16:06:45.264Z,3.38
2022-10-08T16:09:13.790Z,3.30
2022-10-08T16:11:41.046Z,3.90
2022-10-08T16:14:14.989Z,2.88
2022-10-08T16:16:42.547Z,3.30
2022-10-08T16:19:15.906Z,3.95
2022-10-08T16:21:44.174Z,3.72
2022-10-08T16:24:11.716Z,4.28
2022-10-08T16:26:39.915Z,4.15
2022-10-08T16:29:10.879Z,3.88
2022-10-08T16:31:39.520Z,4.35
2022-10-08T16:34:11.402Z,3.90
2022-10-08T16:36:39.470Z,3.58
2022-10-08T16:39:07.706Z,3.55
2022-10-08T16:41:36.067Z,4.75
2022-10-08T16:44:12.376Z,3.55
2022-10-08T16:46:43.122Z,3.63
2022-10-08T16:49:21.118Z,3.63
2022-10-08T16:51:56.000Z,4.13
2022-10-08T16:54:23.055Z,3.97
2022-10-08T16:56:50.264Z,4.60
2022-10-08T16:59:20.854Z,5.15
2022-10-08T17:01:51.240Z,8.55
2022-10-08T17:04:23.575Z,7.57
2022-10-08T17:06:50.963Z,7.57
2022-10-08T17:09:18.075Z,6.28
2022-10-08T17:11:45.212Z,5.03
2022-10-08T17:14:12.306Z,5.10
2022-10-08T17:16:40.599Z,5.47
2022-10-08T17:19:07.975Z,4.13
2022-10-08T17:21:35.138Z,4.10
2022-10-08T17:24:02.714Z,3.60
2022-10-08T17:26:30.861Z,4.30
2022-10-08T17:29:05.816Z,4.05
2022-10-08T17:31:34.059Z,4.07
2022-10-08T17:34:01.760Z,4.32
2022-10-08T17:36:34.097Z,3.78
2022-10-08T17:39:03.047Z,4.03
2022-10-08T17:41:32.249Z,3.95
2022-10-08T17:44:02.816Z,3.80
2022-10-08T17:46:32.806Z,3.50
2022-10-08T17:49:00.085Z,4.05
2022-10-08T17:51:28.810Z,4.65
2022-10-08T17:53:58.341Z,4.38
2022-10-08T17:56:25.968Z,3.42
2022-10-08T17:58:53.701Z,4.15
2022-10-08T18:01:22.897Z,4.13
2022-10-08T18:03:52.932Z,3.55
2022-10-08T18:06:20.989Z,3.28
2022-10-08T18:08:49.701Z,4.13
2022-10-08T18:11:17.194Z,3.90
2022-10-08T18:13:43.992Z,4.03
2022-10-08T18:16:13.947Z,3.60
2022-10-08T18:18:42.127Z,4.22
2022-10-08T18:21:11.279Z,4.32
2022-10-08T18:23:42.043Z,4.43
2022-10-08T18:26:32.375Z,4.55
2022-10-08T18:29:05.138Z,5.00
2022-10-08T18:31:33.435Z,4.72
2022-10-08T18:34:03.601Z,4.75
2022-10-08T18:36:32.782Z,5.75
2022-10-08T18:39:12.986Z,5.65
